sensor_id;sensor_type;location;lat;lon;timestamp;P1;durP1;ratioP1;P2;durP2;ratioP2
79751;SDS011;69234;47.446;21.636;2023-12-04T00:00:29;31.23;;;29.93;;
79751;SDS011;69234;47.446;21.636;2023-12-04T00:01:00;31.87;;;30.57;;
79751;SDS011;69234;47.446;21.636;2023-12-04T00:01:32;30.57;;;29.37;;
79751;SDS011;69234;47.446;21.636;2023-12-04T00:02:02;33.53;;;31.97;;
79751;SDS011;69234;47.446;21.636;2023-12-04T00:02:33;35.13;;;33.53;;
79751;SDS011;69234;47.446;21.636;2023-12-04T00:03:04;35.53;;;34.13;;
79751;SDS011;69234;47.446;21.636;2023-12-04T00:03:35;35.80;;;34.17;;
79751;SDS011;69234;47.446;21.636;2023-12-04T00:04:06;35.73;;;33.90;;
79751;SDS011;69234;47.446;21.636;2023-12-04T00:04:37;35.00;;;33.30;;
79751;SDS011;69234;47.446;21.636;2023-12-04T00:05:08;35.53;;;33.97;;
79751;SDS011;69234;47.446;21.636;2023-12-04T00:05:42;35.70;;;34.13;;
79751;SDS011;69234;47.446;21.636;2023-12-04T00:06:13;35.60;;;34.27;;
79751;SDS011;69234;47.446;21.636;2023-12-04T00:06:44;35.33;;;34.10;;
79751;SDS011;69234;47.446;21.636;2023-12-04T00:07:15;35.67;;;34.20;;
79751;SDS011;69234;47.446;21.636;2023-12-04T00:07:46;36.07;;;34.43;;
79751;SDS011;69234;47.446;21.636;2023-12-04T00:08:17;34.90;;;33.27;;
79751;SDS011;69234;47.446;21.636;2023-12-04T00:08:48;35.00;;;33.33;;
79751;SDS011;69234;47.446;21.636;2023-12-04T00:09:19;35.23;;;33.83;;
79751;SDS011;69234;47.446;21.636;2023-12-04T00:09:50;35.43;;;34.00;;
79751;SDS011;69234;47.446;21.636;2023-12-04T00:10:21;34.63;;;33.13;;
79751;SDS011;69234;47.446;21.636;2023-12-04T00:10:52;35.27;;;33.80;;
79751;SDS011;69234;47.446;21.636;2023-12-04T00:11:24;33.97;;;32.23;;
79751;SDS011;69234;47.446;21.636;2023-12-04T00:11:55;32.80;;;31.27;;
79751;SDS011;69234;47.446;21.636;2023-12-04T00:12:26;34.03;;;32.43;;
79751;SDS011;69234;47.446;21.636;2023-12-04T00:12:57;31.70;;;30.40;;
79751;SDS011;69234;47.446;21.636;2023-12-04T00:13:27;30.07;;;29.03;;
79751;SDS011;69234;47.446;21.636;2023-12-04T00:13:59;30.40;;;29.17;;
79751;SDS011;69234;47.446;21.636;2023-12-04T00:14:30;30.00;;;28.83;;
79751;SDS011;69234;47.446;21.636;2023-12-04T00:15:01;29.80;;;28.13;;
79751;SDS011;69234;47.446;21.636;2023-12-04T00:15:31;28.83;;;27.07;;
79751;SDS011;69234;47.446;21.636;2023-12-04T00:16:02;29.23;;;27.57;;
79751;SDS011;69234;47.446;21.636;2023-12-04T00:16:34;30.63;;;28.97;;
79751;SDS011;69234;47.446;21.636;2023-12-04T00:17:08;29.03;;;27.77;;
79751;SDS011;69234;47.446;21.636;2023-12-04T00:17:39;27.90;;;26.80;;
79751;SDS011;69234;47.446;21.636;2023-12-04T00:18:10;28.07;;;26.90;;
79751;SDS011;69234;47.446;21.636;2023-12-04T00:18:41;27.40;;;26.37;;
79751;SDS011;69234;47.446;21.636;2023-12-04T00:19:12;27.40;;;26.40;;
79751;SDS011;69234;47.446;21.636;2023-12-04T00:19:43;27.03;;;26.13;;
79751;SDS011;69234;47.446;21.636;2023-12-04T00:20:14;26.90;;;26.07;;
79751;SDS011;69234;47.446;21.636;2023-12-04T00:20:45;27.60;;;26.53;;
79751;SDS011;69234;47.446;21.636;2023-12-04T00:21:16;27.97;;;26.60;;
79751;SDS011;69234;47.446;21.636;2023-12-04T00:21:47;28.13;;;26.53;;
79751;SDS011;69234;47.446;21.636;2023-12-04T00:22:18;27.00;;;25.67;;
79751;SDS011;69234;47.446;21.636;2023-12-04T00:22:49;26.50;;;25.33;;
79751;SDS011;69234;47.446;21.636;2023-12-04T00:23:20;27.03;;;25.90;;
79751;SDS011;69234;47.446;21.636;2023-12-04T00:23:50;26.63;;;25.63;;
79751;SDS011;69234;47.446;21.636;2023-12-04T00:24:21;27.77;;;26.73;;
79751;SDS011;69234;47.446;21.636;2023-12-04T00:24:52;27.77;;;26.53;;
79751;SDS011;69234;47.446;21.636;2023-12-04T00:25:23;27.33;;;25.97;;
79751;SDS011;69234;47.446;21.636;2023-12-04T00:25:54;27.17;;;25.77;;
79751;SDS011;69234;47.446;21.636;2023-12-04T00:26:26;28.50;;;27.23;;
79751;SDS011;69234;47.446;21.636;2023-12-04T00:26:56;27.53;;;26.33;;
79751;SDS011;69234;47.446;21.636;2023-12-04T00:27:27;25.47;;;24.37;;
79751;SDS011;69234;47.446;21.636;2023-12-04T00:27:59;26.27;;;25.07;;
79751;SDS011;69234;47.446;21.636;2023-12-04T00:28:30;26.00;;;24.67;;
79751;SDS011;69234;47.446;21.636;2023-12-04T00:29:01;26.60;;;25.30;;
79751;SDS011;69234;47.446;21.636;2023-12-04T00:29:32;26.60;;;25.27;;
79751;SDS011;69234;47.446;21.636;2023-12-04T00:30:03;27.00;;;25.60;;
79751;SDS011;69234;47.446;21.636;2023-12-04T00:30:36;27.13;;;25.80;;
79751;SDS011;69234;47.446;21.636;2023-12-04T00:31:07;27.10;;;25.83;;
79751;SDS011;69234;47.446;21.636;2023-12-04T00:31:41;26.77;;;25.50;;
79751;SDS011;69234;47.446;21.636;2023-12-04T00:32:12;26.27;;;25.03;;
79751;SDS011;69234;47.446;21.636;2023-12-04T00:32:42;26.80;;;25.67;;
79751;SDS011;69234;47.446;21.636;2023-12-04T00:33:13;27.13;;;25.90;;
79751;SDS011;69234;47.446;21.636;2023-12-04T00:33:44;26.23;;;25.00;;
79751;SDS011;69234;47.446;21.636;2023-12-04T00:34:19;26.53;;;25.40;;
79751;SDS011;69234;47.446;21.636;2023-12-04T00:34:49;25.73;;;24.60;;
79751;SDS011;69234;47.446;21.636;2023-12-04T00:35:20;26.43;;;25.23;;
79751;SDS011;69234;47.446;21.636;2023-12-04T00:35:51;26.77;;;25.57;;
79751;SDS011;69234;47.446;21.636;2023-12-04T00:36:22;26.90;;;25.60;;
79751;SDS011;69234;47.446;21.636;2023-12-04T00:36:53;27.23;;;25.80;;
79751;SDS011;69234;47.446;21.636;2023-12-04T00:37:25;28.00;;;26.53;;
79751;SDS011;69234;47.446;21.636;2023-12-04T00:37:57;27.87;;;26.60;;
79751;SDS011;69234;47.446;21.636;2023-12-04T00:38:28;26.57;;;25.43;;
79751;SDS011;69234;47.446;21.636;2023-12-04T00:38:59;28.03;;;26.23;;
79751;SDS011;69234;47.446;21.636;2023-12-04T00:39:30;27.97;;;26.03;;
79751;SDS011;69234;47.446;21.636;2023-12-04T00:40:00;27.83;;;26.20;;
79751;SDS011;69234;47.446;21.636;2023-12-04T00:40:32;29.37;;;27.53;;
79751;SDS011;69234;47.446;21.636;2023-12-04T00:41:03;29.20;;;27.40;;
79751;SDS011;69234;47.446;21.636;2023-12-04T00:41:35;28.50;;;26.83;;
79751;SDS011;69234;47.446;21.636;2023-12-04T00:42:06;28.93;;;27.00;;
79751;SDS011;69234;47.446;21.636;2023-12-04T00:42:36;29.63;;;28.00;;
79751;SDS011;69234;47.446;21.636;2023-12-04T00:43:07;28.67;;;27.57;;
79751;SDS011;69234;47.446;21.636;2023-12-04T00:43:38;28.60;;;27.53;;
79751;SDS011;69234;47.446;21.636;2023-12-04T00:44:09;29.17;;;28.03;;
79751;SDS011;69234;47.446;21.636;2023-12-04T00:44:40;29.87;;;28.67;;
79751;SDS011;69234;47.446;21.636;2023-12-04T00:45:11;29.33;;;28.13;;
79751;SDS011;69234;47.446;21.636;2023-12-04T00:45:42;29.30;;;28.03;;
79751;SDS011;69234;47.446;21.636;2023-12-04T00:46:13;28.73;;;27.63;;
79751;SDS011;69234;47.446;21.636;2023-12-04T00:46:44;30.53;;;28.87;;
79751;SDS011;69234;47.446;21.636;2023-12-04T00:47:15;30.23;;;28.50;;
79751;SDS011;69234;47.446;21.636;2023-12-04T00:47:46;31.60;;;29.73;;
79751;SDS011;69234;47.446;21.636;2023-12-04T00:48:17;30.90;;;29.30;;
79751;SDS011;69234;47.446;21.636;2023-12-04T00:48:47;30.30;;;28.63;;
79751;SDS011;69234;47.446;21.636;2023-12-04T00:49:18;30.57;;;29.17;;
79751;SDS011;69234;47.446;21.636;2023-12-04T00:49:49;29.97;;;28.70;;
79751;SDS011;69234;47.446;21.636;2023-12-04T00:50:20;28.83;;;27.63;;
79751;SDS011;69234;47.446;21.636;2023-12-04T00:50:51;28.90;;;27.90;;
79751;SDS011;69234;47.446;21.636;2023-12-04T00:51:22;28.53;;;27.60;;
79751;SDS011;69234;47.446;21.636;2023-12-04T00:51:53;29.47;;;28.27;;
79751;SDS011;69234;47.446;21.636;2023-12-04T00:52:24;30.33;;;29.00;;
79751;SDS011;69234;47.446;21.636;2023-12-04T00:52:55;30.50;;;29.23;;
79751;SDS011;69234;47.446;21.636;2023-12-04T00:53:26;30.67;;;29.47;;
79751;SDS011;69234;47.446;21.636;2023-12-04T00:53:57;30.40;;;28.93;;
79751;SDS011;69234;47.446;21.636;2023-12-04T00:54:27;30.17;;;28.90;;
79751;SDS011;69234;47.446;21.636;2023-12-04T00:54:58;29.43;;;28.37;;
79751;SDS011;69234;47.446;21.636;2023-12-04T00:55:29;30.00;;;29.00;;
79751;SDS011;69234;47.446;21.636;2023-12-04T00:56:00;29.90;;;28.60;;
79751;SDS011;69234;47.446;21.636;2023-12-04T00:56:31;30.37;;;29.07;;
79751;SDS011;69234;47.446;21.636;2023-12-04T00:57:02;30.70;;;29.53;;
79751;SDS011;69234;47.446;21.636;2023-12-04T00:57:33;31.23;;;29.93;;
79751;SDS011;69234;47.446;21.636;2023-12-04T00:58:04;31.37;;;29.83;;
79751;SDS011;69234;47.446;21.636;2023-12-04T00:58:35;29.30;;;28.17;;
79751;SDS011;69234;47.446;21.636;2023-12-04T00:59:08;30.03;;;28.97;;
79751;SDS011;69234;47.446;21.636;2023-12-04T00:59:40;30.33;;;29.10;;
79751;SDS011;69234;47.446;21.636;2023-12-04T01:00:11;30.23;;;28.87;;
79751;SDS011;69234;47.446;21.636;2023-12-04T01:00:42;31.30;;;29.90;;
79751;SDS011;69234;47.446;21.636;2023-12-04T01:01:13;30.70;;;29.27;;
79751;SDS011;69234;47.446;21.636;2023-12-04T01:01:44;31.97;;;30.50;;
79751;SDS011;69234;47.446;21.636;2023-12-04T01:02:15;32.07;;;30.63;;
79751;SDS011;69234;47.446;21.636;2023-12-04T01:02:46;30.17;;;28.93;;
79751;SDS011;69234;47.446;21.636;2023-12-04T01:03:17;31.47;;;30.13;;
79751;SDS011;69234;47.446;21.636;2023-12-04T01:03:48;31.33;;;30.03;;
79751;SDS011;69234;47.446;21.636;2023-12-04T01:04:19;31.13;;;29.63;;
79751;SDS011;69234;47.446;21.636;2023-12-04T01:04:49;31.43;;;29.90;;
79751;SDS011;69234;47.446;21.636;2023-12-04T01:05:20;30.07;;;28.80;;
79751;SDS011;69234;47.446;21.636;2023-12-04T01:05:51;29.60;;;28.53;;
79751;SDS011;69234;47.446;21.636;2023-12-04T01:06:22;30.60;;;29.47;;
79751;SDS011;69234;47.446;21.636;2023-12-04T01:06:54;30.37;;;29.20;;
79751;SDS011;69234;47.446;21.636;2023-12-04T01:07:25;28.67;;;27.53;;
79751;SDS011;69234;47.446;21.636;2023-12-04T01:07:55;29.90;;;28.77;;
79751;SDS011;69234;47.446;21.636;2023-12-04T01:08:26;30.47;;;29.13;;
79751;SDS011;69234;47.446;21.636;2023-12-04T01:08:57;30.07;;;28.90;;
79751;SDS011;69234;47.446;21.636;2023-12-04T01:09:28;30.83;;;29.60;;
79751;SDS011;69234;47.446;21.636;2023-12-04T01:09:59;29.93;;;28.63;;
79751;SDS011;69234;47.446;21.636;2023-12-04T01:10:30;29.07;;;27.83;;
79751;SDS011;69234;47.446;21.636;2023-12-04T01:11:01;30.07;;;28.67;;
79751;SDS011;69234;47.446;21.636;2023-12-04T01:11:32;30.03;;;28.73;;
79751;SDS011;69234;47.446;21.636;2023-12-04T01:12:03;30.47;;;29.13;;
79751;SDS011;69234;47.446;21.636;2023-12-04T01:12:35;31.63;;;30.13;;
79751;SDS011;69234;47.446;21.636;2023-12-04T01:13:06;30.13;;;28.70;;
79751;SDS011;69234;47.446;21.636;2023-12-04T01:13:37;30.23;;;28.57;;
79751;SDS011;69234;47.446;21.636;2023-12-04T01:14:08;32.23;;;30.27;;
79751;SDS011;69234;47.446;21.636;2023-12-04T01:14:39;31.00;;;29.63;;
79751;SDS011;69234;47.446;21.636;2023-12-04T01:15:10;30.13;;;29.00;;
79751;SDS011;69234;47.446;21.636;2023-12-04T01:15:41;28.67;;;27.53;;
79751;SDS011;69234;47.446;21.636;2023-12-04T01:16:12;29.13;;;28.03;;
79751;SDS011;69234;47.446;21.636;2023-12-04T01:16:44;31.73;;;30.17;;
79751;SDS011;69234;47.446;21.636;2023-12-04T01:17:15;32.27;;;30.60;;
79751;SDS011;69234;47.446;21.636;2023-12-04T01:17:46;30.60;;;29.23;;
79751;SDS011;69234;47.446;21.636;2023-12-04T01:18:17;32.30;;;30.83;;
79751;SDS011;69234;47.446;21.636;2023-12-04T01:18:48;31.30;;;30.10;;
79751;SDS011;69234;47.446;21.636;2023-12-04T01:19:19;33.87;;;32.50;;
79751;SDS011;69234;47.446;21.636;2023-12-04T01:19:50;33.33;;;32.00;;
79751;SDS011;69234;47.446;21.636;2023-12-04T01:20:21;33.50;;;32.30;;
79751;SDS011;69234;47.446;21.636;2023-12-04T01:20:53;32.90;;;31.70;;
79751;SDS011;69234;47.446;21.636;2023-12-04T01:21:24;32.80;;;31.67;;
79751;SDS011;69234;47.446;21.636;2023-12-04T01:21:55;33.30;;;32.10;;
79751;SDS011;69234;47.446;21.636;2023-12-04T01:22:26;32.40;;;30.97;;
79751;SDS011;69234;47.446;21.636;2023-12-04T01:22:57;32.93;;;31.33;;
79751;SDS011;69234;47.446;21.636;2023-12-04T01:23:28;34.10;;;32.67;;
79751;SDS011;69234;47.446;21.636;2023-12-04T01:23:58;34.00;;;33.00;;
79751;SDS011;69234;47.446;21.636;2023-12-04T01:24:29;33.93;;;33.03;;
79751;SDS011;69234;47.446;21.636;2023-12-04T01:25:00;34.07;;;32.87;;
79751;SDS011;69234;47.446;21.636;2023-12-04T01:25:33;34.77;;;33.33;;
79751;SDS011;69234;47.446;21.636;2023-12-04T01:26:04;33.97;;;32.57;;
79751;SDS011;69234;47.446;21.636;2023-12-04T01:26:35;34.73;;;33.30;;
79751;SDS011;69234;47.446;21.636;2023-12-04T01:27:06;32.67;;;31.47;;
79751;SDS011;69234;47.446;21.636;2023-12-04T01:27:37;33.33;;;32.23;;
79751;SDS011;69234;47.446;21.636;2023-12-04T01:28:08;33.57;;;32.13;;
79751;SDS011;69234;47.446;21.636;2023-12-04T01:28:39;34.83;;;32.83;;
79751;SDS011;69234;47.446;21.636;2023-12-04T01:29:10;34.50;;;32.73;;
79751;SDS011;69234;47.446;21.636;2023-12-04T01:29:41;33.67;;;32.20;;
79751;SDS011;69234;47.446;21.636;2023-12-04T01:30:12;33.17;;;31.67;;
79751;SDS011;69234;47.446;21.636;2023-12-04T01:30:44;34.03;;;32.27;;
79751;SDS011;69234;47.446;21.636;2023-12-04T01:31:15;32.77;;;31.53;;
79751;SDS011;69234;47.446;21.636;2023-12-04T01:31:46;34.70;;;33.67;;
79751;SDS011;69234;47.446;21.636;2023-12-04T01:32:17;35.63;;;34.27;;
79751;SDS011;69234;47.446;21.636;2023-12-04T01:32:47;34.67;;;33.37;;
79751;SDS011;69234;47.446;21.636;2023-12-04T01:33:18;35.10;;;33.57;;
79751;SDS011;69234;47.446;21.636;2023-12-04T01:33:49;35.03;;;33.53;;
79751;SDS011;69234;47.446;21.636;2023-12-04T01:34:20;35.03;;;33.47;;
79751;SDS011;69234;47.446;21.636;2023-12-04T01:34:51;36.67;;;34.97;;
79751;SDS011;69234;47.446;21.636;2023-12-04T01:35:22;35.90;;;34.27;;
79751;SDS011;69234;47.446;21.636;2023-12-04T01:35:53;37.13;;;35.53;;
79751;SDS011;69234;47.446;21.636;2023-12-04T01:36:24;39.47;;;37.63;;
79751;SDS011;69234;47.446;21.636;2023-12-04T01:36:55;42.57;;;40.40;;
79751;SDS011;69234;47.446;21.636;2023-12-04T01:37:26;44.07;;;41.97;;
79751;SDS011;69234;47.446;21.636;2023-12-04T01:37:57;44.37;;;42.40;;
79751;SDS011;69234;47.446;21.636;2023-12-04T01:38:28;49.23;;;46.97;;
79751;SDS011;69234;47.446;21.636;2023-12-04T01:38:59;52.33;;;50.30;;
79751;SDS011;69234;47.446;21.636;2023-12-04T01:39:30;50.83;;;49.03;;
79751;SDS011;69234;47.446;21.636;2023-12-04T01:40:01;50.53;;;48.70;;
79751;SDS011;69234;47.446;21.636;2023-12-04T01:40:32;55.50;;;53.57;;
79751;SDS011;69234;47.446;21.636;2023-12-04T01:41:03;62.23;;;59.90;;
79751;SDS011;69234;47.446;21.636;2023-12-04T01:41:34;60.30;;;58.30;;
79751;SDS011;69234;47.446;21.636;2023-12-04T01:42:05;57.90;;;55.93;;
79751;SDS011;69234;47.446;21.636;2023-12-04T01:42:36;58.07;;;55.67;;
79751;SDS011;69234;47.446;21.636;2023-12-04T01:43:07;54.37;;;52.63;;
79751;SDS011;69234;47.446;21.636;2023-12-04T01:43:38;53.17;;;51.67;;
79751;SDS011;69234;47.446;21.636;2023-12-04T01:44:09;53.23;;;51.43;;
79751;SDS011;69234;47.446;21.636;2023-12-04T01:44:40;52.00;;;49.63;;
79751;SDS011;69234;47.446;21.636;2023-12-04T01:45:11;51.63;;;49.23;;
79751;SDS011;69234;47.446;21.636;2023-12-04T01:45:42;52.70;;;50.47;;
79751;SDS011;69234;47.446;21.636;2023-12-04T01:46:13;51.73;;;49.17;;
79751;SDS011;69234;47.446;21.636;2023-12-04T01:46:47;52.30;;;49.93;;
79751;SDS011;69234;47.446;21.636;2023-12-04T01:47:19;51.50;;;49.27;;
79751;SDS011;69234;47.446;21.636;2023-12-04T01:47:50;52.13;;;49.87;;
79751;SDS011;69234;47.446;21.636;2023-12-04T01:48:21;51.27;;;49.20;;
79751;SDS011;69234;47.446;21.636;2023-12-04T01:48:55;49.97;;;47.53;;
79751;SDS011;69234;47.446;21.636;2023-12-04T01:49:26;50.57;;;48.00;;
79751;SDS011;69234;47.446;21.636;2023-12-04T01:49:57;48.80;;;46.67;;
79751;SDS011;69234;47.446;21.636;2023-12-04T01:50:28;42.47;;;40.50;;
79751;SDS011;69234;47.446;21.636;2023-12-04T01:51:00;40.30;;;38.43;;
79751;SDS011;69234;47.446;21.636;2023-12-04T01:51:37;38.50;;;36.93;;
79751;SDS011;69234;47.446;21.636;2023-12-04T01:52:09;38.10;;;36.53;;
79751;SDS011;69234;47.446;21.636;2023-12-04T01:52:41;37.27;;;35.67;;
79751;SDS011;69234;47.446;21.636;2023-12-04T01:53:12;36.37;;;34.60;;
79751;SDS011;69234;47.446;21.636;2023-12-04T01:53:43;37.03;;;35.07;;
79751;SDS011;69234;47.446;21.636;2023-12-04T01:54:15;35.90;;;33.87;;
79751;SDS011;69234;47.446;21.636;2023-12-04T01:54:47;35.87;;;34.00;;
79751;SDS011;69234;47.446;21.636;2023-12-04T01:55:18;34.17;;;32.77;;
79751;SDS011;69234;47.446;21.636;2023-12-04T01:55:50;35.00;;;33.33;;
79751;SDS011;69234;47.446;21.636;2023-12-04T01:56:21;35.67;;;33.80;;
79751;SDS011;69234;47.446;21.636;2023-12-04T01:56:52;35.50;;;33.87;;
79751;SDS011;69234;47.446;21.636;2023-12-04T01:57:23;36.40;;;34.83;;
79751;SDS011;69234;47.446;21.636;2023-12-04T01:57:54;35.27;;;33.77;;
79751;SDS011;69234;47.446;21.636;2023-12-04T01:58:26;35.30;;;33.80;;
79751;SDS011;69234;47.446;21.636;2023-12-04T01:58:57;35.60;;;34.10;;
79751;SDS011;69234;47.446;21.636;2023-12-04T01:59:29;34.63;;;33.23;;
79751;SDS011;69234;47.446;21.636;2023-12-04T02:00:00;36.33;;;35.10;;
79751;SDS011;69234;47.446;21.636;2023-12-04T02:00:41;39.13;;;37.67;;
79751;SDS011;69234;47.446;21.636;2023-12-04T02:01:12;41.03;;;39.17;;
79751;SDS011;69234;47.446;21.636;2023-12-04T02:01:44;41.03;;;39.17;;
79751;SDS011;69234;47.446;21.636;2023-12-04T02:02:15;40.47;;;38.67;;
79751;SDS011;69234;47.446;21.636;2023-12-04T02:02:46;40.60;;;38.90;;
79751;SDS011;69234;47.446;21.636;2023-12-04T02:03:17;41.57;;;39.77;;
79751;SDS011;69234;47.446;21.636;2023-12-04T02:03:49;47.43;;;45.57;;
79751;SDS011;69234;47.446;21.636;2023-12-04T02:04:21;51.07;;;48.70;;
79751;SDS011;69234;47.446;21.636;2023-12-04T02:04:54;50.30;;;47.97;;
79751;SDS011;69234;47.446;21.636;2023-12-04T02:05:26;52.13;;;49.67;;
79751;SDS011;69234;47.446;21.636;2023-12-04T02:06:00;52.43;;;50.03;;
79751;SDS011;69234;47.446;21.636;2023-12-04T02:06:34;50.60;;;48.57;;
79751;SDS011;69234;47.446;21.636;2023-12-04T02:07:05;47.70;;;45.70;;
79751;SDS011;69234;47.446;21.636;2023-12-04T02:07:36;46.63;;;44.93;;
79751;SDS011;69234;47.446;21.636;2023-12-04T02:08:07;47.57;;;45.70;;
79751;SDS011;69234;47.446;21.636;2023-12-04T02:08:40;46.97;;;45.00;;
79751;SDS011;69234;47.446;21.636;2023-12-04T02:09:11;45.57;;;44.07;;
79751;SDS011;69234;47.446;21.636;2023-12-04T02:09:43;43.73;;;42.40;;
79751;SDS011;69234;47.446;21.636;2023-12-04T02:10:14;42.20;;;40.67;;
79751;SDS011;69234;47.446;21.636;2023-12-04T02:10:45;41.77;;;40.23;;
79751;SDS011;69234;47.446;21.636;2023-12-04T02:11:16;42.63;;;40.93;;
79751;SDS011;69234;47.446;21.636;2023-12-04T02:11:46;43.97;;;41.97;;
79751;SDS011;69234;47.446;21.636;2023-12-04T02:12:17;46.00;;;43.67;;
79751;SDS011;69234;47.446;21.636;2023-12-04T02:12:51;43.27;;;41.13;;
79751;SDS011;69234;47.446;21.636;2023-12-04T02:13:22;44.23;;;42.10;;
79751;SDS011;69234;47.446;21.636;2023-12-04T02:13:53;42.57;;;41.17;;
79751;SDS011;69234;47.446;21.636;2023-12-04T02:14:26;42.43;;;40.97;;
79751;SDS011;69234;47.446;21.636;2023-12-04T02:14:57;43.23;;;41.63;;
79751;SDS011;69234;47.446;21.636;2023-12-04T02:15:28;43.10;;;41.23;;
79751;SDS011;69234;47.446;21.636;2023-12-04T02:16:00;41.90;;;40.10;;
79751;SDS011;69234;47.446;21.636;2023-12-04T02:16:39;44.63;;;42.40;;
79751;SDS011;69234;47.446;21.636;2023-12-04T02:17:13;46.00;;;43.77;;
79751;SDS011;69234;47.446;21.636;2023-12-04T02:17:46;45.67;;;43.63;;
79751;SDS011;69234;47.446;21.636;2023-12-04T02:18:18;43.70;;;41.73;;
79751;SDS011;69234;47.446;21.636;2023-12-04T02:18:49;44.77;;;42.83;;
79751;SDS011;69234;47.446;21.636;2023-12-04T02:19:20;45.20;;;43.07;;
79751;SDS011;69234;47.446;21.636;2023-12-04T02:19:52;43.37;;;41.70;;
79751;SDS011;69234;47.446;21.636;2023-12-04T02:20:33;44.30;;;42.47;;
79751;SDS011;69234;47.446;21.636;2023-12-04T02:21:05;44.90;;;43.17;;
79751;SDS011;69234;47.446;21.636;2023-12-04T02:21:36;43.67;;;42.03;;
79751;SDS011;69234;47.446;21.636;2023-12-04T02:22:07;44.60;;;42.57;;
79751;SDS011;69234;47.446;21.636;2023-12-04T02:22:38;45.57;;;43.43;;
79751;SDS011;69234;47.446;21.636;2023-12-04T02:23:08;44.50;;;42.30;;
79751;SDS011;69234;47.446;21.636;2023-12-04T02:23:39;44.07;;;41.90;;
79751;SDS011;69234;47.446;21.636;2023-12-04T02:24:10;43.00;;;40.93;;
79751;SDS011;69234;47.446;21.636;2023-12-04T02:24:41;43.10;;;40.63;;
79751;SDS011;69234;47.446;21.636;2023-12-04T02:25:12;42.70;;;40.03;;
79751;SDS011;69234;47.446;21.636;2023-12-04T02:25:44;43.87;;;41.67;;
79751;SDS011;69234;47.446;21.636;2023-12-04T02:26:16;44.37;;;42.13;;
79751;SDS011;69234;47.446;21.636;2023-12-04T02:26:59;42.97;;;40.77;;
79751;SDS011;69234;47.446;21.636;2023-12-04T02:27:49;44.53;;;41.93;;
79751;SDS011;69234;47.446;21.636;2023-12-04T02:28:23;45.20;;;42.63;;
79751;SDS011;69234;47.446;21.636;2023-12-04T02:29:02;46.20;;;43.57;;
79751;SDS011;69234;47.446;21.636;2023-12-04T02:29:45;43.53;;;41.53;;
79751;SDS011;69234;47.446;21.636;2023-12-04T02:30:26;43.13;;;41.47;;
79751;SDS011;69234;47.446;21.636;2023-12-04T02:31:01;43.53;;;41.70;;
79751;SDS011;69234;47.446;21.636;2023-12-04T02:31:35;41.57;;;39.70;;
79751;SDS011;69234;47.446;21.636;2023-12-04T02:32:11;42.30;;;40.00;;
79751;SDS011;69234;47.446;21.636;2023-12-04T02:32:47;41.57;;;39.43;;
79751;SDS011;69234;47.446;21.636;2023-12-04T02:33:19;42.27;;;40.00;;
79751;SDS011;69234;47.446;21.636;2023-12-04T02:33:55;40.63;;;38.60;;
79751;SDS011;69234;47.446;21.636;2023-12-04T02:34:29;39.43;;;37.60;;
79751;SDS011;69234;47.446;21.636;2023-12-04T02:35:03;39.53;;;37.77;;
79751;SDS011;69234;47.446;21.636;2023-12-04T02:35:36;39.63;;;38.00;;
79751;SDS011;69234;47.446;21.636;2023-12-04T02:36:09;39.47;;;37.67;;
79751;SDS011;69234;47.446;21.636;2023-12-04T02:36:43;38.50;;;36.83;;
79751;SDS011;69234;47.446;21.636;2023-12-04T02:37:15;39.57;;;37.97;;
79751;SDS011;69234;47.446;21.636;2023-12-04T02:37:49;39.33;;;37.77;;
79751;SDS011;69234;47.446;21.636;2023-12-04T02:38:21;36.30;;;34.87;;
79751;SDS011;69234;47.446;21.636;2023-12-04T02:38:52;35.57;;;34.33;;
79751;SDS011;69234;47.446;21.636;2023-12-04T02:39:24;36.07;;;34.60;;
79751;SDS011;69234;47.446;21.636;2023-12-04T02:39:55;37.03;;;34.87;;
79751;SDS011;69234;47.446;21.636;2023-12-04T02:40:26;35.67;;;33.70;;
79751;SDS011;69234;47.446;21.636;2023-12-04T02:40:57;35.37;;;33.67;;
79751;SDS011;69234;47.446;21.636;2023-12-04T02:41:29;34.60;;;33.10;;
79751;SDS011;69234;47.446;21.636;2023-12-04T02:41:59;34.67;;;32.67;;
79751;SDS011;69234;47.446;21.636;2023-12-04T02:42:31;35.13;;;33.50;;
79751;SDS011;69234;47.446;21.636;2023-12-04T02:43:02;34.07;;;32.77;;
79751;SDS011;69234;47.446;21.636;2023-12-04T02:43:34;33.87;;;32.63;;
79751;SDS011;69234;47.446;21.636;2023-12-04T02:44:05;35.37;;;33.97;;
79751;SDS011;69234;47.446;21.636;2023-12-04T02:44:36;35.03;;;33.60;;
79751;SDS011;69234;47.446;21.636;2023-12-04T02:45:07;35.00;;;33.57;;
79751;SDS011;69234;47.446;21.636;2023-12-04T02:45:38;34.67;;;33.40;;
79751;SDS011;69234;47.446;21.636;2023-12-04T02:46:09;34.67;;;33.43;;
79751;SDS011;69234;47.446;21.636;2023-12-04T02:46:40;36.00;;;34.60;;
79751;SDS011;69234;47.446;21.636;2023-12-04T02:47:11;38.67;;;37.03;;
79751;SDS011;69234;47.446;21.636;2023-12-04T02:47:42;42.47;;;40.83;;
79751;SDS011;69234;47.446;21.636;2023-12-04T02:48:13;43.57;;;41.90;;
79751;SDS011;69234;47.446;21.636;2023-12-04T02:48:44;44.20;;;42.60;;
79751;SDS011;69234;47.446;21.636;2023-12-04T02:49:15;42.17;;;40.90;;
79751;SDS011;69234;47.446;21.636;2023-12-04T02:49:46;42.50;;;41.00;;
79751;SDS011;69234;47.446;21.636;2023-12-04T02:50:17;42.63;;;40.90;;
79751;SDS011;69234;47.446;21.636;2023-12-04T02:50:48;43.70;;;41.80;;
79751;SDS011;69234;47.446;21.636;2023-12-04T02:51:19;44.60;;;42.20;;
79751;SDS011;69234;47.446;21.636;2023-12-04T02:51:49;43.83;;;41.57;;
79751;SDS011;69234;47.446;21.636;2023-12-04T02:52:20;42.20;;;40.40;;
79751;SDS011;69234;47.446;21.636;2023-12-04T02:52:51;41.90;;;40.07;;
79751;SDS011;69234;47.446;21.636;2023-12-04T02:53:22;42.00;;;40.23;;
79751;SDS011;69234;47.446;21.636;2023-12-04T02:53:53;40.80;;;39.23;;
79751;SDS011;69234;47.446;21.636;2023-12-04T02:54:24;40.37;;;38.73;;
79751;SDS011;69234;47.446;21.636;2023-12-04T02:54:55;40.67;;;38.83;;
79751;SDS011;69234;47.446;21.636;2023-12-04T02:55:26;40.97;;;39.10;;
79751;SDS011;69234;47.446;21.636;2023-12-04T02:55:58;42.47;;;40.37;;
79751;SDS011;69234;47.446;21.636;2023-12-04T02:56:29;40.63;;;38.73;;
79751;SDS011;69234;47.446;21.636;2023-12-04T02:57:00;41.73;;;40.00;;
79751;SDS011;69234;47.446;21.636;2023-12-04T02:57:31;41.03;;;39.33;;
79751;SDS011;69234;47.446;21.636;2023-12-04T02:58:02;40.97;;;39.40;;
79751;SDS011;69234;47.446;21.636;2023-12-04T02:58:33;40.17;;;38.90;;
79751;SDS011;69234;47.446;21.636;2023-12-04T02:59:04;41.57;;;40.10;;
79751;SDS011;69234;47.446;21.636;2023-12-04T02:59:35;41.83;;;40.07;;
79751;SDS011;69234;47.446;21.636;2023-12-04T03:00:06;40.00;;;38.27;;
79751;SDS011;69234;47.446;21.636;2023-12-04T03:00:38;40.23;;;38.67;;
79751;SDS011;69234;47.446;21.636;2023-12-04T03:01:09;41.33;;;39.97;;
79751;SDS011;69234;47.446;21.636;2023-12-04T03:01:40;41.73;;;40.30;;
79751;SDS011;69234;47.446;21.636;2023-12-04T03:02:11;41.90;;;40.43;;